Time;durP1;ratioP1;P1;durP2;ratioP2;P2;SDS_P1;SDS_P2;PMS_P1;PMS_P2;Temp;Humidity;BMP_temperature;BMP_pressure;BME280_temperature;BME280_humidity;BME280_pressure;Samples;Min_cycle;Max_cycle;Signal;HPM_P1;HPM_P2
2021/04/09 00:00:24;;;;;;;6.13;4.93;;;;;;;3.59;59.09;95766.28;5076835;28;20447;-79
2021/04/09 00:02:51;;;;;;;7.17;4.93;;;;;;;3.65;59.47;95772.03;5077369;28;20528;-79
2021/04/09 00:05:20;;;;;;;9.80;4.80;;;;;;;3.67;59.06;95775.41;5042245;28;20924;-79
2021/04/09 00:07:48;;;;;;;6.50;5.10;;;;;;;3.69;59.58;95778.78;5077057;28;20751;-79
2021/04/09 00:10:16;;;;;;;6.03;5.53;;;;;;;3.71;59.82;95787.34;5076950;28;20942;-79
2021/04/09 00:12:43;;;;;;;6.00;4.37;;;;;;;3.71;59.64;95786.50;5076899;28;20440;-79
2021/04/09 00:15:11;;;;;;;7.53;4.67;;;;;;;3.78;59.55;95789.69;5077516;28;20440;-79
2021/04/09 00:17:37;;;;;;;7.37;4.67;;;;;;;3.76;59.00;95794.97;5077001;28;20428;-79
2021/04/09 00:20:05;;;;;;;5.30;4.80;;;;;;;3.76;58.88;95789.75;5077212;28;20463;-79
2021/04/09 00:22:32;;;;;;;6.13;4.70;;;;;;;3.79;59.81;95796.56;5076404;28;20472;-79
2021/04/09 00:24:59;;;;;;;7.97;5.00;;;;;;;3.77;59.10;95785.41;5076844;28;20436;-79
2021/04/09 00:27:25;;;;;;;11.00;5.07;;;;;;;3.77;59.20;95778.47;5076579;28;20436;-79
2021/04/09 00:29:51;;;;;;;6.07;4.40;;;;;;;3.79;58.92;95783.59;5077042;28;20897;-78
2021/04/09 00:32:18;;;;;;;9.20;4.60;;;;;;;3.77;58.90;95781.06;5076816;28;20454;-78
2021/04/09 00:34:44;;;;;;;5.07;4.67;;;;;;;3.71;58.64;95770.94;5076719;28;20448;-79
2021/04/09 00:37:10;;;;;;;8.17;5.17;;;;;;;3.68;59.26;95778.84;5077111;28;20458;-79
2021/04/09 00:39:37;;;;;;;6.67;5.10;;;;;;;3.61;59.78;95769.66;5076544;28;20444;-79
2021/04/09 00:42:05;;;;;;;10.40;6.00;;;;;;;3.59;59.92;95780.09;5076986;28;20475;-79
2021/04/09 00:44:31;;;;;;;7.20;5.13;;;;;;;3.55;59.90;95769.94;5040925;28;20483;-79
2021/04/09 00:46:57;;;;;;;7.10;4.93;;;;;;;3.52;58.90;95775.25;5041453;28;20445;-79
2021/04/09 00:49:23;;;;;;;8.77;5.85;;;;;;;3.48;58.69;95765.91;5076304;28;20618;-79
2021/04/09 00:51:50;;;;;;;5.37;4.00;;;;;;;3.42;58.73;95772.19;5076779;28;20193;-79
2021/04/09 00:54:16;;;;;;;7.70;4.97;;;;;;;3.41;58.44;95783.47;5041323;28;20452;-79
2021/04/09 00:56:45;;;;;;;7.57;4.80;;;;;;;3.41;58.80;95778.28;5075680;28;20955;-79
2021/04/09 00:59:11;;;;;;;8.47;4.67;;;;;;;3.41;59.19;95778.28;5076861;28;20489;-79
2021/04/09 01:01:39;;;;;;;5.77;3.80;;;;;;;3.36;58.62;95781.06;5075595;28;20994;-79
2021/04/09 01:04:05;;;;;;;7.10;4.43;;;;;;;3.38;59.32;95778.41;5040932;28;21319;-79
2021/04/09 01:06:32;;;;;;;4.63;4.20;;;;;;;3.39;59.46;95780.09;5075854;28;20444;-79
2021/04/09 01:08:58;;;;;;;5.90;3.63;;;;;;;3.38;59.00;95784.44;5075942;28;20444;-79
2021/04/09 01:11:24;;;;;;;4.57;3.23;;;;;;;3.37;58.51;95776.72;5075979;28;20934;-79
2021/04/09 01:13:52;;;;;;;6.93;4.10;;;;;;;3.34;58.55;95779.47;5075486;28;20437;-79
2021/04/09 01:16:28;;;;;;;6.33;3.93;;;;;;;3.32;58.87;95779.53;5040922;28;20440;-79
2021/04/09 01:19:01;;;;;;;6.97;4.60;;;;;;;3.26;58.49;95782.38;5076190;28;20916;-79
2021/04/09 01:21:36;;;;;;;6.57;4.90;;;;;;;3.26;59.37;95790.16;5075739;28;20575;-79
2021/04/09 01:24:39;;;;;;;7.83;4.90;;;;;;;3.25;59.13;95790.22;5076020;28;20456;-79
2021/04/09 01:27:44;;;;;;;6.73;5.50;;;;;;;3.24;59.45;95796.31;5014025;28;20500;-79
2021/04/09 01:30:52;;;;;;;5.38;3.95;;;;;;;3.23;59.22;95786.84;5013581;28;20466;-78
2021/04/09 01:33:22;;;;;;;4.67;3.83;;;;;;;3.09;59.40;95777.88;5013474;28;20184;-79
2021/04/09 01:35:53;;;;;;;4.20;3.73;;;;;;;3.08;58.74;95788.31;5014021;28;20443;-79
2021/04/09 01:38:21;;;;;;;8.23;4.87;;;;;;;3.11;58.90;95786.44;5013711;28;20498;-79
2021/04/09 01:40:48;;;;;;;5.70;5.03;;;;;;;3.11;59.29;95783.84;4965645;28;20482;-79
2021/04/09 01:43:17;;;;;;;6.93;5.07;;;;;;;3.08;59.05;95781.38;5013321;28;20463;-79
2021/04/09 01:45:44;;;;;;;6.27;4.83;;;;;;;3.06;59.07;95780.59;5013638;28;20986;-79
2021/04/09 01:51:34;;;;;;;7.63;3.95;;;;;;;2.95;59.67;95776.78;5012500;28;20461;-79
2021/04/09 01:54:02;;;;;;;5.27;3.80;;;;;;;2.94;59.02;95773.34;4965248;28;20196;-79
2021/04/09 01:56:29;;;;;;;7.13;4.47;;;;;;;2.96;59.47;95774.13;5012934;28;20443;-79
2021/04/09 01:58:56;;;;;;;4.60;3.90;;;;;;;2.98;59.71;95784.44;5013293;28;20295;-79
2021/04/09 02:01:24;;;;;;;4.70;4.20;;;;;;;3.02;58.90;95786.00;5012849;28;20307;-79
2021/04/09 02:03:53;;;;;;;6.77;4.20;;;;;;;3.08;58.86;95785.72;5046342;28;20576;-78
2021/04/09 02:06:21;;;;;;;4.90;3.80;;;;;;;3.04;58.76;95785.00;5075320;28;20482;-79
2021/04/09 02:08:48;;;;;;;6.57;4.07;;;;;;;3.01;59.12;95790.34;5075035;28;20437;-79
2021/04/09 02:11:15;;;;;;;5.47;3.70;;;;;;;2.98;58.97;95776.66;5075445;28;20806;-79
2021/04/09 02:13:42;;;;;;;5.75;3.97;;;;;;;2.97;58.49;95783.59;5073920;28;20937;-79
2021/04/09 02:16:09;;;;;;;5.22;4.18;;;;;;;2.96;58.80;95791.44;5074648;28;20643;-79
2021/04/09 02:18:36;;;;;;;4.15;3.70;;;;;;;2.92;58.59;95795.06;5074397;28;20240;-79
2021/04/09 02:21:03;;;;;;;3.47;3.17;;;;;;;2.89;59.17;95796.03;5074073;28;20317;-79
2021/04/09 02:23:30;;;;;;;3.63;3.30;;;;;;;2.90;58.65;95800.31;5075013;28;20198;-79
2021/04/09 02:25:58;;;;;;;3.27;2.97;;;;;;;2.87;59.08;95787.44;5039108;28;21471;-79
2021/04/09 02:28:24;;;;;;;4.60;3.80;;;;;;;2.92;58.82;95795.91;5039580;28;20792;-79
2021/04/09 02:31:03;;;;;;;4.68;3.47;;;;;;;2.96;58.90;95804.38;5074611;28;20912;-78
2021/04/09 02:33:29;;;;;;;5.07;3.60;;;;;;;3.00;59.06;95811.13;5074262;28;20198;-78
2021/04/09 02:35:56;;;;;;;3.27;2.97;;;;;;;3.04;58.31;95810.94;5074203;28;20451;-79
2021/04/09 02:38:23;;;;;;;4.20;3.80;;;;;;;2.98;58.55;95811.19;5039282;28;20454;-79
2021/04/09 02:40:51;;;;;;;6.17;4.10;;;;;;;2.86;59.20;95806.50;5074079;28;20492;-79
2021/04/09 02:43:18;;;;;;;6.55;4.28;;;;;;;2.59;60.66;95807.56;5055594;28;20472;-79
2021/04/09 02:45:44;;;;;;;7.23;4.30;;;;;;;2.73;60.67;95813.06;5074580;28;20194;-79
2021/04/09 02:48:13;;;;;;;6.27;4.97;;;;;;;2.70;61.87;95821.81;5074243;28;20494;-79
2021/04/09 02:50:43;;;;;;;12.90;7.65;;;;;;;2.72;63.61;95808.81;5073927;28;20452;-79
2021/04/09 02:53:14;;;;;;;20.80;11.40;;;;;;;2.73;64.00;95811.31;5074364;28;20202;-78
2021/04/09 02:55:42;;;;;;;24.58;14.27;;;;;;;2.76;63.90;95810.34;5075069;28;20193;-79
2021/04/09 02:58:11;;;;;;;22.10;13.25;;;;;;;2.77;63.44;95812.03;5074619;28;20209;-79
2021/04/09 03:00:42;;;;;;;13.43;9.03;;;;;;;2.83;63.06;95803.19;5074038;28;20256;-79
2021/04/09 03:03:10;;;;;;;8.47;6.50;;;;;;;2.84;62.16;95805.72;5073985;28;20916;-78
2021/04/09 03:05:37;;;;;;;8.45;6.15;;;;;;;2.82;61.21;95817.03;5074259;28;20440;-79
2021/04/09 03:08:04;;;;;;;5.82;5.22;;;;;;;2.82;60.91;95814.44;5073687;28;20252;-79
2021/04/09 03:10:31;;;;;;;8.57;4.70;;;;;;;2.83;60.37;95809.19;5073524;28;20653;-78
2021/04/09 03:12:57;;;;;;;11.10;6.77;;;;;;;2.86;59.49;95811.66;5038489;28;20798;-79
2021/04/09 03:15:27;;;;;;;9.85;5.60;;;;;;;2.90;60.12;95823.63;5005820;28;20436;-79
2021/04/09 03:17:57;;;;;;;7.32;4.43;;;;;;;2.92;59.40;95821.81;5074187;28;20198;-79
2021/04/09 03:20:24;;;;;;;4.82;4.10;;;;;;;2.98;59.30;95825.91;5055329;28;20550;-79
2021/04/09 03:22:51;;;;;;;5.03;4.53;;;;;;;2.97;59.17;95816.44;5074018;28;20225;-79
2021/04/09 03:25:17;;;;;;;8.65;4.95;;;;;;;2.99;59.03;95831.03;5073527;28;20944;-79
2021/04/09 03:27:44;;;;;;;5.00;3.80;;;;;;;3.01;59.05;95834.41;5073949;28;20224;-79
2021/04/09 03:30:11;;;;;;;4.23;3.83;;;;;;;2.99;59.47;95831.03;5074023;28;20444;-79
2021/04/09 03:32:37;;;;;;;5.70;3.70;;;;;;;2.90;60.13;95833.16;5073455;28;20768;-79
2021/04/09 03:35:06;;;;;;;5.60;4.55;;;;;;;2.89;59.97;95836.63;5073895;28;20468;-79
2021/04/09 03:37:32;;;;;;;13.50;8.00;;;;;;;2.81;60.20;95839.53;5074092;28;20206;-79
2021/04/09 03:39:59;;;;;;;9.73;6.67;;;;;;;2.83;59.85;95845.50;5073191;28;20927;-79
2021/04/09 03:42:25;;;;;;;16.15;7.85;;;;;;;2.81;60.12;95842.13;5073441;28;20484;-79
2021/04/09 03:44:51;;;;;;;10.40;7.67;;;;;;;2.75;61.25;95845.78;5073942;28;20233;-79
2021/04/09 03:47:18;;;;;;;10.30;7.35;;;;;;;2.78;61.53;95845.66;5073191;28;20440;-79
2021/04/09 03:49:44;;;;;;;12.10;7.77;;;;;;;2.85;61.70;95856.63;5073586;28;20202;-79
2021/04/09 03:52:11;;;;;;;16.00;8.40;;;;;;;2.86;61.73;95857.47;5072862;28;20963;-79
2021/04/09 03:54:38;;;;;;;16.88;11.10;;;;;;;2.59;62.22;95865.41;5072914;28;20433;-79
2021/04/09 03:57:05;;;;;;;17.27;12.20;;;;;;;2.47;63.56;95861.56;5073385;28;20197;-79
2021/04/09 03:59:31;;;;;;;13.30;9.45;;;;;;;2.52;63.47;95863.13;5072901;28;20483;-79
2021/04/09 04:01:57;;;;;;;24.10;12.85;;;;;;;2.57;63.87;95876.75;5073169;28;20214;-79
2021/04/09 04:07:46;;;;;;;23.38;14.00;;;;;;;2.75;64.55;95879.50;5073174;28;20653;-79
2021/04/09 04:10:14;;;;;;;14.55;9.90;;;;;;;2.80;64.29;95880.16;5073133;28;20193;-79
2021/04/09 04:12:40;;;;;;;12.48;8.38;;;;;;;2.93;63.39;95883.13;5073497;28;20712;-79
2021/04/09 04:15:08;;;;;;;16.00;9.73;;;;;;;3.32;63.09;95883.28;5073625;28;20213;-79
2021/04/09 04:17:34;;;;;;;16.57;9.43;;;;;;;3.80;61.32;95889.09;5038167;28;20472;-79
2021/04/09 04:20:05;;;;;;;10.53;7.47;;;;;;;4.06;58.88;95885.41;5038124;28;20448;-78
2021/04/09 04:22:31;;;;;;;7.10;6.30;;;;;;;4.16;58.81;95892.72;5073351;28;20480;-78
2021/04/09 04:24:58;;;;;;;7.23;6.27;;;;;;;4.20;58.34;95889.06;5073062;28;20804;-78
2021/04/09 04:27:25;;;;;;;13.43;7.20;;;;;;;4.55;57.81;95892.69;5073108;28;20506;-78
2021/04/09 04:29:51;;;;;;;12.83;6.63;;;;;;;5.25;56.39;95889.44;5037821;28;20772;-78
2021/04/09 04:32:17;;;;;;;10.33;7.03;;;;;;;6.17;53.36;95892.69;5072681;28;20866;-79
2021/04/09 04:34:44;;;;;;;16.77;8.33;;;;;;;7.00;50.47;95891.78;5072779;28;20432;-79
2021/04/09 04:37:11;;;;;;;10.80;7.73;;;;;;;7.68;49.28;95892.28;5076043;28;20513;-78
2021/04/09 04:39:37;;;;;;;10.83;7.77;;;;;;;8.29;47.01;95899.13;5075775;28;20449;-79
2021/04/09 04:42:05;;;;;;;12.30;7.60;;;;;;;8.79;46.13;95892.66;5007529;28;21039;-79
2021/04/09 04:44:31;;;;;;;15.30;8.37;;;;;;;8.58;45.38;95894.81;5040240;28;20483;-79
2021/04/09 04:46:57;;;;;;;15.53;8.57;;;;;;;8.23;45.93;95905.59;5007428;28;20855;-79
2021/04/09 04:49:24;;;;;;;14.07;8.80;;;;;;;7.86;46.46;95909.53;5076047;28;20448;-78
2021/04/09 04:51:50;;;;;;;14.90;9.00;;;;;;;7.62;48.41;95909.16;5075473;28;20460;-78
2021/04/09 04:54:16;;;;;;;22.03;9.53;;;;;;;7.51;49.04;95910.66;5040755;28;20444;-79
2021/04/09 04:56:43;;;;;;;11.20;9.30;;;;;;;7.43;48.65;95916.31;5075392;28;20509;-79
2021/04/09 04:59:10;;;;;;;21.53;9.20;;;;;;;7.31;48.99;95922.25;5075750;28;20444;-79
2021/04/09 05:01:36;;;;;;;13.67;8.53;;;;;;;7.28;49.17;95915.44;5007974;28;20901;-79
2021/04/09 05:04:03;;;;;;;17.70;11.77;;;;;;;7.44;50.02;95926.69;5076647;28;20451;-79
2021/04/09 05:06:29;;;;;;;23.27;14.17;;;;;;;7.69;48.75;95930.53;5041409;28;20460;-78
2021/04/09 05:08:55;;;;;;;23.97;14.10;;;;;;;7.79;49.05;95936.91;5040986;28;20547;-79
2021/04/09 05:11:22;;;;;;;20.70;14.07;;;;;;;7.80;48.39;95930.75;5075993;28;20460;-78
2021/04/09 05:13:49;;;;;;;20.07;12.33;;;;;;;7.27;47.74;95937.25;5041398;28;20476;-79
2021/04/09 05:16:16;;;;;;;18.07;13.07;;;;;;;6.98;49.61;95938.81;5075870;28;20459;-78
2021/04/09 05:18:42;;;;;;;18.53;11.17;;;;;;;7.16;49.69;95942.19;5076388;28;20451;-78
2021/04/09 05:21:09;;;;;;;20.80;13.37;;;;;;;7.76;49.31;95935.31;5075699;28;20480;-79
2021/04/09 05:23:35;;;;;;;23.83;12.50;;;;;;;8.31;48.04;95941.72;5040532;28;20429;-79
2021/04/09 05:26:02;;;;;;;21.73;12.60;;;;;;;8.92;46.64;95940.69;5075442;28;20810;-79
2021/04/09 05:28:28;;;;;;;17.00;11.63;;;;;;;9.43;44.52;95936.59;5075981;28;20435;-79
2021/04/09 05:30:55;;;;;;;25.37;13.80;;;;;;;9.82;43.97;95941.03;5075693;28;20433;-79
2021/04/09 05:33:23;;;;;;;23.27;14.43;;;;;;;10.22;42.95;95936.69;5075403;28;20449;-79
2021/04/09 05:35:49;;;;;;;23.07;11.33;;;;;;;10.39;42.58;95937.31;5075588;28;20867;-79
2021/04/09 05:38:16;;;;;;;19.00;11.80;;;;;;;10.83;41.29;95939.56;5075710;28;20463;-79
2021/04/09 05:40:43;;;;;;;17.97;12.13;;;;;;;11.28;39.53;95939.94;5040484;28;20444;-79
2021/04/09 05:43:09;;;;;;;21.70;11.03;;;;;;;11.60;39.25;95935.84;5075386;28;21016;-79
2021/04/09 05:45:36;;;;;;;38.40;14.07;;;;;;;12.00;38.05;95946.97;5075724;28;20452;-79
2021/04/09 05:48:05;;;;;;;42.40;19.43;;;;;;;12.46;37.76;95947.97;5075232;28;20428;-79
2021/04/09 05:50:33;;;;;;;14.43;11.40;;;;;;;12.45;37.40;95956.81;5075176;28;20771;-80
2021/04/09 05:52:59;;;;;;;13.50;10.20;;;;;;;12.76;36.67;95960.59;5074813;28;20501;-79
2021/04/09 05:55:25;;;;;;;24.47;14.17;;;;;;;12.82;35.90;95954.88;5075188;28;20437;-79
2021/04/09 05:57:52;;;;;;;23.43;12.13;;;;;;;12.65;36.04;95956.13;5075220;28;20440;-80
2021/04/09 06:00:20;;;;;;;20.30;11.27;;;;;;;12.62;36.70;95954.59;5075042;28;20828;-80
2021/04/09 06:02:46;;;;;;;16.90;10.43;;;;;;;12.62;36.14;95953.75;5074453;28;20469;-80
2021/04/09 06:05:13;;;;;;;16.10;10.70;;;;;;;12.59;36.86;95957.44;5075028;28;20756;-80
2021/04/09 06:07:40;;;;;;;21.17;11.70;;;;;;;12.88;36.64;95959.66;5074791;28;20968;-80
2021/04/09 06:10:08;;;;;;;15.43;10.40;;;;;;;13.16;36.35;95958.38;5075261;28;20429;-79
2021/04/09 06:12:37;;;;;;;15.00;9.33;;;;;;;13.14;35.64;95950.56;5039667;28;20437;-79
2021/04/09 06:15:06;;;;;;;19.83;9.60;;;;;;;12.86;36.64;95954.50;5075269;28;20782;-80
2021/04/09 06:17:32;;;;;;;18.60;10.00;;;;;;;13.08;36.42;95950.22;5040464;28;20494;-78
2021/04/09 06:19:59;;;;;;;9.83;8.00;;;;;;;13.06;36.00;95954.78;5074906;28;20430;-79
2021/04/09 06:22:25;;;;;;;13.77;8.10;;;;;;;12.63;35.66;95952.78;5074032;28;20490;-78
2021/04/09 06:24:52;;;;;;;10.90;6.80;;;;;;;12.31;36.73;95961.31;5074119;28;20799;-79
2021/04/09 06:27:18;;;;;;;15.43;7.50;;;;;;;12.10;37.47;95953.22;5074218;28;20444;-78
2021/04/09 06:29:45;;;;;;;23.93;10.20;;;;;;;12.45;37.99;95956.81;5074528;28;20823;-78
2021/04/09 06:32:11;;;;;;;17.67;7.60;;;;;;;12.16;37.87;95961.63;5074088;28;20457;-78
2021/04/09 06:34:37;;;;;;;19.03;10.60;;;;;;;11.90;38.43;95958.28;5073997;28;20434;-79
2021/04/09 06:37:04;;;;;;;18.27;9.10;;;;;;;11.52;37.82;95960.97;5074486;28;20453;-79
2021/04/09 06:39:30;;;;;;;17.80;9.70;;;;;;;11.51;39.39;95960.16;5039547;28;20437;-79
2021/04/09 06:41:59;;;;;;;9.70;7.67;;;;;;;11.32;38.56;95965.88;5074066;28;20467;-79
2021/04/09 06:44:27;;;;;;;16.53;7.70;;;;;;;11.26;38.98;95965.47;5074589;28;20468;-79
2021/04/09 06:46:54;;;;;;;8.70;7.30;;;;;;;11.12;39.31;95977.78;5074476;28;20437;-78
2021/04/09 06:49:21;;;;;;;8.60;6.40;;;;;;;10.84;39.36;95981.47;5074097;28;20493;-79
2021/04/09 06:51:47;;;;;;;10.23;8.07;;;;;;;10.86;40.49;95973.47;5073661;28;20455;-79
2021/04/09 06:54:15;;;;;;;14.80;8.90;;;;;;;11.12;39.31;95980.41;5073977;28;20430;-79
2021/04/09 06:56:43;;;;;;;7.00;6.00;;;;;;;11.11;40.53;95981.34;5039071;28;20439;-79
2021/04/09 06:59:15;;;;;;;11.13;5.90;;;;;;;11.23;39.89;95979.66;5072879;28;20438;-79
2021/04/09 07:01:44;;;;;;;6.47;5.60;;;;;;;11.50;39.24;95979.50;5039142;28;20233;-79
2021/04/09 07:04:11;;;;;;;8.40;6.40;;;;;;;11.96;38.34;95986.75;5073989;28;20495;-79
2021/04/09 07:06:38;;;;;;;5.90;5.30;;;;;;;12.18;37.57;95991.28;5073498;28;20486;-79
2021/04/09 07:09:06;;;;;;;7.03;6.20;;;;;;;12.36;36.78;95988.13;5073596;28;20977;-79
2021/04/09 07:11:32;;;;;;;8.57;6.30;;;;;;;12.73;35.84;95982.75;5074125;28;20421;-78
2021/04/09 07:13:59;;;;;;;10.87;5.70;;;;;;;12.56;35.78;95986.66;5073486;28;20936;-78
2021/04/09 07:16:26;;;;;;;5.43;4.93;;;;;;;12.36;36.30;95990.75;5073313;28;20474;-78
2021/04/09 07:18:54;;;;;;;7.67;4.83;;;;;;;12.55;35.55;95986.75;5074148;28;20425;-78
2021/04/09 07:21:26;;;;;;;6.00;5.33;;;;;;;12.83;34.55;95983.72;5038742;28;20484;-78
2021/04/09 07:24:19;;;;;;;12.67;4.43;;;;;;;12.48;32.69;95993.44;5074010;28;20432;-79
2021/04/09 07:26:47;;;;;;;6.00;5.10;;;;;;;11.71;34.43;95988.50;5073163;28;20927;-79
2021/04/09 07:29:44;;;;;;;8.10;5.63;;;;;;;11.94;35.45;95989.50;5073479;28;20501;-78
2021/04/09 07:32:29;;;;;;;6.73;4.50;;;;;;;12.37;33.61;95997.69;5011266;28;20791;-78
2021/04/09 07:34:59;;;;;;;6.50;4.40;;;;;;;12.37;34.43;95995.06;4964062;28;20546;-79
2021/04/09 07:37:27;;;;;;;5.13;4.63;;;;;;;12.44;34.71;95992.00;5011342;28;20550;-80
2021/04/09 07:39:57;;;;;;;5.53;4.13;;;;;;;12.66;32.78;95998.16;5011521;28;20919;-80
2021/04/09 07:42:35;;;;;;;9.90;5.90;;;;;;;12.35;32.94;95994.34;5011525;28;20467;-80
2021/04/09 07:45:08;;;;;;;6.57;4.33;;;;;;;10.82;34.67;95993.03;4995158;28;20922;-80
2021/04/09 07:47:36;;;;;;;8.97;4.57;;;;;;;10.65;34.98;95996.78;5011424;28;20585;-81
2021/04/09 07:50:08;;;;;;;6.20;4.90;;;;;;;10.27;35.90;96004.59;5011490;28;20445;-76
2021/04/09 07:52:40;;;;;;;6.20;4.27;;;;;;;10.28;33.62;96011.50;5011345;28;21117;-78
2021/04/09 07:55:29;;;;;;;6.73;4.60;;;;;;;10.01;35.16;96008.03;5011449;28;20842;-78
2021/04/09 07:57:56;;;;;;;5.97;5.37;;;;;;;9.75;36.68;96007.06;4953322;29;20467;-78
2021/04/09 08:00:25;;;;;;;14.83;5.57;;;;;;;9.72;37.73;96008.13;4953417;29;20451;-80
2021/04/09 08:02:53;;;;;;;6.33;4.67;;;;;;;9.92;37.81;96002.44;4952631;29;20483;-78
2021/04/09 08:05:21;;;;;;;6.07;5.17;;;;;;;10.13;37.42;95999.38;4953052;29;20433;-78
2021/04/09 08:07:48;;;;;;;5.50;4.80;;;;;;;9.99;36.47;95996.81;4953042;29;20483;-79
2021/04/09 08:10:16;;;;;;;15.87;6.03;;;;;;;10.07;37.21;95989.28;5028849;28;20440;-79
2021/04/09 08:12:50;;;;;;;7.63;5.10;;;;;;;10.20;37.14;95992.78;5002624;28;20445;-79
2021/04/09 08:15:20;;;;;;;5.93;5.40;;;;;;;9.99;36.35;95996.81;5034545;28;20447;-81
2021/04/09 08:21:09;;;;;;;5.73;4.77;;;;;;;9.78;37.10;96007.72;5034126;28;20430;-79
2021/04/09 08:23:36;;;;;;;8.30;4.80;;;;;;;9.48;36.49;96007.03;5034552;28;20432;-79
2021/04/09 08:26:03;;;;;;;9.40;3.60;;;;;;;9.99;35.90;96008.13;5034646;28;20477;-79
2021/04/09 08:28:29;;;;;;;5.57;4.43;;;;;;;9.93;34.73;96006.75;5034485;28;20516;-78
2021/04/09 08:30:55;;;;;;;5.40;4.13;;;;;;;9.90;34.99;96004.31;5034552;28;20448;-78
2021/04/09 08:33:22;;;;;;;4.47;4.03;;;;;;;10.09;35.20;95998.72;5034274;28;20499;-78
2021/04/09 08:35:49;;;;;;;4.90;3.90;;;;;;;10.34;34.27;96005.84;5073588;28;20439;-79
2021/04/09 08:38:17;;;;;;;9.67;5.10;;;;;;;10.70;34.36;95999.13;5076542;28;20462;-79
2021/04/09 08:40:43;;;;;;;6.33;5.17;;;;;;;10.70;35.21;95991.25;5076550;28;20452;-79
2021/04/09 08:43:09;;;;;;;5.13;4.63;;;;;;;10.61;33.85;95994.47;5076428;28;20566;-79
2021/04/09 08:45:36;;;;;;;7.43;5.30;;;;;;;10.31;35.75;95999.97;5074869;28;20443;-79
2021/04/09 08:48:03;;;;;;;8.47;5.87;;;;;;;10.09;36.03;96000.50;5075254;28;20443;-79
2021/04/09 08:50:29;;;;;;;5.80;5.13;;;;;;;9.81;36.02;95999.66;5075382;28;20445;-79
2021/04/09 08:52:56;;;;;;;6.30;5.70;;;;;;;9.62;36.63;96009.66;5074712;28;20465;-79
2021/04/09 08:55:37;;;;;;;5.03;4.63;;;;;;;9.98;35.71;96011.69;5075093;28;20445;-79
2021/04/09 08:58:14;;;;;;;5.10;4.50;;;;;;;10.36;34.19;96003.97;5075037;28;20813;-79
2021/04/09 09:01:00;;;;;;;70.83;9.00;;;;;;;10.70;33.98;95999.13;5074713;28;20448;-79
2021/04/09 09:03:28;;;;;;;8.77;3.53;;;;;;;11.15;33.44;96005.63;5074492;28;20477;-79
2021/04/09 09:05:56;;;;;;;4.53;4.07;;;;;;;11.44;32.22;96007.06;5074504;28;20996;-79
2021/04/09 09:08:23;;;;;;;5.40;4.90;;;;;;;11.58;33.56;96003.47;5074905;28;20455;-80
2021/04/09 09:10:51;;;;;;;9.17;4.90;;;;;;;11.72;32.64;96008.56;5074706;28;20925;-79
2021/04/09 09:13:22;;;;;;;4.80;4.40;;;;;;;11.78;31.27;96010.78;5074449;28;20951;-79
2021/04/09 09:15:56;;;;;;;5.97;4.10;;;;;;;12.04;32.45;96001.03;5074596;28;20503;-79
2021/04/09 09:18:55;;;;;;;8.70;4.73;;;;;;;11.92;33.06;95995.81;5055796;28;20449;-79
2021/04/09 09:21:28;;;;;;;9.83;4.23;;;;;;;11.74;33.12;96003.19;5073886;28;20439;-79
2021/04/09 09:23:57;;;;;;;4.17;3.70;;;;;;;11.57;31.60;95996.53;5040571;28;20519;-79
2021/04/09 09:26:30;;;;;;;6.00;4.10;;;;;;;11.49;32.90;96004.09;5074478;28;20444;-79
2021/04/09 09:29:12;;;;;;;7.00;4.87;;;;;;;11.29;32.76;95999.44;5055762;28;20478;-79
2021/04/09 09:31:40;;;;;;;4.10;3.70;;;;;;;10.74;32.87;96001.44;5074430;28;20448;-79
2021/04/09 09:34:36;;;;;;;7.83;4.40;;;;;;;10.59;32.70;95998.97;5074430;28;20954;-79
2021/04/09 09:37:06;;;;;;;3.60;3.30;;;;;;;10.65;32.48;95994.16;5074063;28;20488;-79
2021/04/09 09:39:37;;;;;;;26.07;4.20;;;;;;;10.93;32.95;96005.41;5074497;28;20822;-79
2021/04/09 09:42:07;;;;;;;7.37;3.87;;;;;;;11.24;31.69;95993.63;5074306;28;20889;-79
2021/04/09 09:44:43;;;;;;;4.03;3.50;;;;;;;11.42;31.13;95995.81;5073941;28;20559;-79
2021/04/09 09:47:20;;;;;;;5.30;4.57;;;;;;;11.40;32.43;95995.09;5074007;28;20440;-79
2021/04/09 09:50:23;;;;;;;3.97;3.60;;;;;;;11.41;30.86;95995.94;5073981;28;20486;-79
2021/04/09 09:52:56;;;;;;;7.40;3.57;;;;;;;11.52;31.68;95985.47;5074112;28;20441;-79
2021/04/09 09:55:28;;;;;;;3.73;3.43;;;;;;;11.51;30.31;95977.72;5073931;28;20959;-79
2021/04/09 09:57:57;;;;;;;5.20;3.40;;;;;;;11.37;29.99;95981.31;5073610;28;20849;-79
2021/04/09 10:00:32;;;;;;;4.80;3.87;;;;;;;11.45;29.55;95981.63;5073688;28;20946;-79
2021/04/09 10:03:19;;;;;;;4.43;4.00;;;;;;;11.33;29.70;95974.59;5073670;28;20484;-79
2021/04/09 10:05:48;;;;;;;6.63;4.30;;;;;;;11.17;30.10;95966.94;5073752;28;20898;-79
2021/04/09 10:08:14;;;;;;;4.20;3.80;;;;;;;10.99;31.64;95971.72;5073399;28;20455;-79
2021/04/09 10:10:46;;;;;;;3.93;3.63;;;;;;;10.98;30.99;95966.53;5073408;28;20458;-79
2021/04/09 10:13:24;;;;;;;4.37;3.60;;;;;;;11.06;32.89;95964.25;5073622;28;20455;-78
2021/04/09 10:15:54;;;;;;;5.70;5.10;;;;;;;11.16;32.81;95963.47;5073510;28;20535;-79
2021/04/09 10:18:20;;;;;;;6.30;3.93;;;;;;;11.28;32.40;95966.22;5073385;28;20445;-79
2021/04/09 10:20:50;;;;;;;4.33;3.80;;;;;;;11.31;31.70;95958.97;5038362;28;20448;-79
2021/04/09 10:23:22;;;;;;;3.93;3.60;;;;;;;11.18;29.10;95963.38;5073324;28;20488;-79
2021/04/09 10:25:52;;;;;;;4.27;3.30;;;;;;;10.99;29.46;95957.75;5037976;28;20444;-79
2021/04/09 10:28:20;;;;;;;5.63;3.30;;;;;;;10.88;29.86;95974.22;5073214;28;20444;-78
2021/04/09 10:30:52;;;;;;;8.37;3.60;;;;;;;10.45;29.11;95956.16;5073089;28;20449;-79
2021/04/09 10:33:19;;;;;;;4.60;3.40;;;;;;;9.74;30.42;95951.19;5072147;28;20819;-78
2021/04/09 10:35:45;;;;;;;4.30;3.90;;;;;;;9.79;30.12;95953.50;5054128;28;20451;-79
2021/04/09 10:38:13;;;;;;;3.70;3.40;;;;;;;9.79;31.39;95950.91;5073188;28;20454;-79
2021/04/09 10:40:53;;;;;;;3.10;2.90;;;;;;;9.83;30.81;95940.13;5073068;28;20448;-80
2021/04/09 10:43:35;;;;;;;5.17;4.10;;;;;;;9.61;32.08;95934.59;5073054;28;20517;-79
2021/04/09 10:46:13;;;;;;;10.20;3.80;;;;;;;9.85;32.02;95934.78;5072566;28;20462;-79
2021/04/09 10:48:40;;;;;;;4.43;4.00;;;;;;;10.14;31.72;95941.59;5073253;28;20446;-79
2021/04/09 10:51:08;;;;;;;3.50;3.20;;;;;;;10.33;32.32;95927.25;5073078;28;20846;-78
2021/04/09 10:53:34;;;;;;;5.63;3.67;;;;;;;10.59;31.55;95930.75;5072682;28;20827;-79
2021/04/09 10:56:03;;;;;;;4.17;3.53;;;;;;;10.78;32.25;95918.88;5072809;28;20943;-78
2021/04/09 10:58:30;;;;;;;10.87;4.00;;;;;;;11.09;32.44;95920.22;5073998;28;20444;-79
2021/04/09 11:00:58;;;;;;;6.70;5.00;;;;;;;11.24;32.29;95920.06;5073360;28;20451;-79
2021/04/09 11:03:24;;;;;;;9.30;4.00;;;;;;;11.28;31.48;95906.63;5073809;28;20532;-78
2021/04/09 11:05:51;;;;;;;8.07;4.40;;;;;;;11.31;31.11;95916.06;5073751;28;20445;-78
2021/04/09 11:08:34;;;;;;;4.20;3.80;;;;;;;11.13;31.29;95920.84;5074016;28;20452;-78
2021/04/09 11:11:02;;;;;;;5.67;3.90;;;;;;;11.02;31.59;95911.09;5073455;28;20455;-78
2021/04/09 11:13:33;;;;;;;7.90;3.80;;;;;;;11.11;31.48;95910.44;5073489;28;20452;-78
2021/04/09 11:16:00;;;;;;;11.13;4.60;;;;;;;11.06;31.03;95909.91;5072622;28;20459;-78
2021/04/09 11:18:55;;;;;;;5.13;4.30;;;;;;;11.05;30.51;95916.13;5073124;28;20447;-78
2021/04/09 11:21:47;;;;;;;5.50;4.10;;;;;;;11.18;31.60;95919.56;5072927;28;20448;-79
2021/04/09 11:24:16;;;;;;;5.07;3.90;;;;;;;11.22;29.55;95909.66;5072472;28;20466;-79
2021/04/09 11:26:42;;;;;;;4.90;3.70;;;;;;;11.34;29.93;95908.81;5072616;28;20444;-79
2021/04/09 11:29:09;;;;;;;4.10;3.70;;;;;;;11.46;30.78;95901.81;5072611;28;20498;-79
2021/04/09 11:31:36;;;;;;;4.90;4.07;;;;;;;11.54;29.85;95902.09;5037185;28;20436;-79
2021/04/09 11:34:08;;;;;;;5.23;3.80;;;;;;;11.67;30.05;95900.28;5072421;28;20933;-79
2021/04/09 11:36:44;;;;;;;12.90;4.03;;;;;;;11.71;28.41;95893.84;5072585;28;20452;-79
2021/04/09 11:39:14;;;;;;;6.40;4.37;;;;;;;11.88;30.15;95897.91;5072465;28;20455;-79
2021/04/09 11:41:43;;;;;;;4.63;4.00;;;;;;;12.03;29.88;95902.00;5072745;28;20605;-79
2021/04/09 11:44:31;;;;;;;3.77;3.47;;;;;;;11.54;27.26;95891.59;5073596;28;20460;-80
2021/04/09 11:47:32;;;;;;;5.83;3.33;;;;;;;11.66;27.47;95895.13;5080298;28;20920;-79
2021/04/09 11:50:09;;;;;;;5.23;3.67;;;;;;;11.68;27.84;95890.59;5080520;28;20448;-79
2021/04/09 11:52:58;;;;;;;8.20;4.07;;;;;;;11.72;28.03;95884.16;5080123;28;20823;-79
2021/04/09 11:55:28;;;;;;;6.23;3.53;;;;;;;11.59;26.85;95878.13;5080118;28;20447;-79